DLH7XP EDDF-LIRF
Flight info
| Callsign | DLH7XP |
|---|---|
| Flight time | 1h 33m |
| Altitude | 23000 |
| Route | CINDY8S/18 CINDY Z74 LAMPU/N0427F370 DCT NOMBO Y161 RIDAR DCT KONIN DCT BERAS DCT LIKDA DCT BAKOR DCT VESAL DCT GAVRA DCT RITEB |
| Aircraft | A320/M-SDE2E3FGIJ1LORWXYZ/HB1 |
Departure
| Time | 2026-04-15 12:28 |
|---|---|
| Airport | Frankfurt Main Airport (EDDF) |
Arrival
| Time | 2026-04-15 14:02 |
|---|---|
| Airport | Rome–Fiumicino Leonardo da Vinci International Airport (LIRF) |
| Time | Latitude | Longitude | Altitude | Speed | Heading |
|---|---|---|---|---|---|
| 2026-04-15 11:59 | 50.03600 | 8.53726 | 337 ft | 0 kts | 159° |
| 2026-04-15 12:24 | 50.03589 | 8.53732 | 336 ft | 6 kts | 160° |
| 2026-04-15 12:24 | 50.03531 | 8.53727 | 338 ft | 13 kts | 238° |
| 2026-04-15 12:24 | 50.03491 | 8.53603 | 337 ft | 13 kts | 248° |
| 2026-04-15 12:25 | 50.03458 | 8.53477 | 338 ft | 12 kts | 249° |
| 2026-04-15 12:25 | 50.03432 | 8.53360 | 334 ft | 11 kts | 249° |
| 2026-04-15 12:25 | 50.03404 | 8.53252 | 333 ft | 11 kts | 249° |
| 2026-04-15 12:25 | 50.03379 | 8.53147 | 334 ft | 10 kts | 249° |
| 2026-04-15 12:26 | 50.03354 | 8.53046 | 333 ft | 10 kts | 249° |
| 2026-04-15 12:26 | 50.03328 | 8.52937 | 332 ft | 14 kts | 250° |
| 2026-04-15 12:26 | 50.03291 | 8.52774 | 334 ft | 16 kts | 250° |
| 2026-04-15 12:26 | 50.03238 | 8.52629 | 335 ft | 14 kts | 220° |
| 2026-04-15 12:27 | 50.03148 | 8.52596 | 334 ft | 12 kts | 180° |
| 2026-04-15 12:27 | 50.03139 | 8.52596 | 333 ft | 0 kts | 180° |
| 2026-04-15 12:27 | 50.02973 | 8.52598 | 335 ft | 62 kts | 180° |
| 2026-04-15 12:28 | 50.02300 | 8.52602 | 333 ft | 128 kts | 180° |
| 2026-04-15 12:28 | 50.01229 | 8.52609 | 429 ft | 170 kts | 179° |
| 2026-04-15 12:28 | 50.00074 | 8.52615 | 1170 ft | 168 kts | 179° |
| 2026-04-15 12:28 | 49.98860 | 8.52614 | 1779 ft | 183 kts | 178° |
| 2026-04-15 12:29 | 49.97511 | 8.52725 | 2158 ft | 205 kts | 164° |
| 2026-04-15 12:29 | 49.96274 | 8.53871 | 2594 ft | 220 kts | 131° |
| 2026-04-15 12:29 | 49.95454 | 8.55936 | 3374 ft | 224 kts | 118° |
| 2026-04-15 12:29 | 49.94696 | 8.58076 | 4211 ft | 227 kts | 119° |
| 2026-04-15 12:30 | 49.94117 | 8.60316 | 5114 ft | 231 kts | 102° |
| 2026-04-15 12:30 | 49.93938 | 8.62961 | 5604 ft | 255 kts | 95° |
| 2026-04-15 12:30 | 49.93821 | 8.65752 | 6332 ft | 267 kts | 97° |
| 2026-04-15 12:30 | 49.93356 | 8.68555 | 7158 ft | 273 kts | 116° |
| 2026-04-15 12:31 | 49.92294 | 8.71001 | 8001 ft | 276 kts | 136° |
| 2026-04-15 12:31 | 49.90782 | 8.72854 | 8877 ft | 279 kts | 146° |
| 2026-04-15 12:31 | 49.89209 | 8.74667 | 9750 ft | 285 kts | 139° |
| 2026-04-15 12:31 | 49.87895 | 8.77004 | 10551 ft | 292 kts | 124° |
| 2026-04-15 12:32 | 49.86846 | 8.79811 | 11038 ft | 311 kts | 121° |
| 2026-04-15 12:32 | 49.85752 | 8.82845 | 11352 ft | 333 kts | 120° |
| 2026-04-15 12:32 | 49.84607 | 8.86036 | 11984 ft | 342 kts | 120° |
| 2026-04-15 12:32 | 49.83440 | 8.89279 | 12744 ft | 347 kts | 120° |
| 2026-04-15 12:33 | 49.82254 | 8.92565 | 13515 ft | 352 kts | 120° |
| 2026-04-15 12:33 | 49.81054 | 8.95883 | 14238 ft | 356 kts | 120° |
| 2026-04-15 12:33 | 49.79831 | 8.99243 | 14905 ft | 360 kts | 120° |
| 2026-04-15 12:33 | 49.78592 | 9.02635 | 15585 ft | 364 kts | 120° |
| 2026-04-15 12:34 | 49.77341 | 9.06055 | 16267 ft | 368 kts | 120° |
| 2026-04-15 12:34 | 49.76214 | 9.09650 | 16925 ft | 373 kts | 111° |
| 2026-04-15 12:34 | 49.75501 | 9.13525 | 17584 ft | 378 kts | 105° |
| 2026-04-15 12:34 | 49.74665 | 9.17366 | 18225 ft | 380 kts | 115° |
| 2026-04-15 12:35 | 49.73845 | 9.19788 | 18658 ft | 382 kts | 122° |
| 2026-04-15 12:35 | 49.72261 | 9.23075 | 19233 ft | 384 kts | 132° |
| 2026-04-15 12:35 | 49.70492 | 9.26183 | 19793 ft | 388 kts | 132° |
| 2026-04-15 12:35 | 49.68700 | 9.29333 | 20353 ft | 392 kts | 132° |
| 2026-04-15 12:36 | 49.66891 | 9.32517 | 20889 ft | 396 kts | 132° |
| 2026-04-15 12:36 | 49.65066 | 9.35734 | 21451 ft | 400 kts | 132° |
| 2026-04-15 12:36 | 49.63217 | 9.38977 | 22011 ft | 404 kts | 134° |
| 2026-04-15 12:36 | 49.61141 | 9.41902 | 22565 ft | 406 kts | 144° |
| 2026-04-15 12:37 | 49.58764 | 9.44278 | 23067 ft | 410 kts | 150° |
| 2026-04-15 12:37 | 49.56303 | 9.46524 | 23204 ft | 409 kts | 150° |
| 2026-04-15 12:37 | 49.53897 | 9.48718 | 23223 ft | 398 kts | 150° |
| 2026-04-15 12:37 | 49.51527 | 9.50880 | 23222 ft | 395 kts | 150° |
| 2026-04-15 12:38 | 49.49165 | 9.53035 | 23224 ft | 394 kts | 150° |
| 2026-04-15 12:38 | 49.46806 | 9.55188 | 23222 ft | 394 kts | 150° |
| 2026-04-15 12:38 | 49.44448 | 9.57335 | 23222 ft | 394 kts | 150° |
| 2026-04-15 12:38 | 49.42091 | 9.59478 | 23222 ft | 394 kts | 150° |
| 2026-04-15 12:39 | 49.39733 | 9.61615 | 23221 ft | 394 kts | 150° |
| 2026-04-15 12:39 | 49.37374 | 9.63750 | 23220 ft | 394 kts | 150° |
| 2026-04-15 12:39 | 49.35025 | 9.65914 | 23220 ft | 394 kts | 147° |
| 2026-04-15 12:39 | 49.32885 | 9.68519 | 23214 ft | 394 kts | 136° |
| 2026-04-15 12:40 | 49.30944 | 9.71486 | 23218 ft | 394 kts | 135° |
| 2026-04-15 12:40 | 49.29005 | 9.74452 | 23216 ft | 394 kts | 135° |
| 2026-04-15 12:40 | 49.27066 | 9.77410 | 23217 ft | 394 kts | 135° |
| 2026-04-15 12:40 | 49.25125 | 9.80368 | 23223 ft | 394 kts | 135° |
| 2026-04-15 12:41 | 49.23183 | 9.83324 | 23224 ft | 394 kts | 135° |
| 2026-04-15 12:41 | 49.21241 | 9.86281 | 23225 ft | 394 kts | 135° |
| 2026-04-15 12:41 | 49.19300 | 9.89235 | 23225 ft | 394 kts | 135° |
| 2026-04-15 12:41 | 49.17357 | 9.92184 | 23225 ft | 394 kts | 135° |
| 2026-04-15 12:42 | 49.15410 | 9.95134 | 23225 ft | 394 kts | 135° |
| 2026-04-15 12:42 | 49.13463 | 9.98083 | 23225 ft | 394 kts | 135° |
| 2026-04-15 12:42 | 49.11517 | 10.01027 | 23224 ft | 394 kts | 135° |
| 2026-04-15 12:42 | 49.09569 | 10.03971 | 23224 ft | 394 kts | 135° |
| 2026-04-15 12:43 | 49.07621 | 10.06911 | 23225 ft | 394 kts | 134° |
| 2026-04-15 12:43 | 49.05667 | 10.09848 | 23234 ft | 394 kts | 135° |
| 2026-04-15 12:43 | 49.03690 | 10.12727 | 23234 ft | 394 kts | 136° |
| 2026-04-15 12:43 | 49.01682 | 10.15566 | 23237 ft | 394 kts | 136° |
| 2026-04-15 12:44 | 48.99658 | 10.18384 | 23247 ft | 394 kts | 136° |
| 2026-04-15 12:44 | 48.97641 | 10.21184 | 23242 ft | 393 kts | 136° |
| 2026-04-15 12:44 | 48.95617 | 10.24005 | 23257 ft | 393 kts | 136° |
| 2026-04-15 12:44 | 48.93610 | 10.26822 | 23256 ft | 393 kts | 136° |
| 2026-04-15 12:45 | 48.91609 | 10.29644 | 23253 ft | 393 kts | 136° |
| 2026-04-15 12:45 | 48.89608 | 10.32471 | 23254 ft | 392 kts | 136° |
| 2026-04-15 12:45 | 48.87609 | 10.35297 | 23249 ft | 392 kts | 136° |
| 2026-04-15 12:45 | 48.85610 | 10.38116 | 23253 ft | 392 kts | 136° |
| 2026-04-15 12:46 | 48.83640 | 10.40885 | 23255 ft | 392 kts | 136° |
| 2026-04-15 12:46 | 48.81635 | 10.43780 | 23254 ft | 392 kts | 134° |
| 2026-04-15 12:46 | 48.79728 | 10.46735 | 23255 ft | 392 kts | 132° |
| 2026-04-15 12:46 | 48.77868 | 10.49746 | 23246 ft | 391 kts | 131° |
| 2026-04-15 12:47 | 48.76024 | 10.52780 | 23263 ft | 391 kts | 131° |
| 2026-04-15 12:47 | 48.74180 | 10.55815 | 23262 ft | 391 kts | 131° |
| 2026-04-15 12:47 | 48.72333 | 10.58830 | 23260 ft | 391 kts | 131° |
| 2026-04-15 12:47 | 48.70473 | 10.61834 | 23256 ft | 390 kts | 131° |
| 2026-04-15 12:48 | 48.68606 | 10.64819 | 23256 ft | 390 kts | 132° |
| 2026-04-15 12:48 | 48.66736 | 10.67788 | 23247 ft | 390 kts | 132° |
| 2026-04-15 12:48 | 48.64860 | 10.70753 | 23245 ft | 390 kts | 132° |
| 2026-04-15 12:48 | 48.62989 | 10.73710 | 23242 ft | 390 kts | 132° |
| 2026-04-15 12:49 | 48.61110 | 10.76679 | 23241 ft | 390 kts | 132° |
| 2026-04-15 12:49 | 48.59157 | 10.79504 | 23238 ft | 391 kts | 140° |
| 2026-04-15 12:49 | 48.56900 | 10.81801 | 23232 ft | 392 kts | 150° |
| 2026-04-15 12:49 | 48.54508 | 10.83674 | 23225 ft | 393 kts | 151° |
| 2026-04-15 12:50 | 48.52051 | 10.85590 | 23225 ft | 393 kts | 151° |
| 2026-04-15 12:50 | 48.49627 | 10.87483 | 23237 ft | 393 kts | 151° |
| 2026-04-15 12:50 | 48.47137 | 10.89219 | 23230 ft | 394 kts | 155° |
| 2026-04-15 12:50 | 48.44611 | 10.90817 | 23225 ft | 394 kts | 156° |
| 2026-04-15 12:51 | 48.42101 | 10.92341 | 23223 ft | 394 kts | 157° |
| 2026-04-15 12:51 | 48.39551 | 10.93858 | 23221 ft | 394 kts | 157° |
| 2026-04-15 12:51 | 48.36997 | 10.95370 | 23220 ft | 395 kts | 157° |
| 2026-04-15 12:51 | 48.34445 | 10.96889 | 23219 ft | 395 kts | 157° |
| 2026-04-15 12:52 | 48.31899 | 10.98416 | 23218 ft | 395 kts | 157° |
| 2026-04-15 12:52 | 48.29349 | 10.99951 | 23217 ft | 395 kts | 156° |
| 2026-04-15 12:52 | 48.26805 | 11.01494 | 23219 ft | 395 kts | 156° |
| 2026-04-15 12:52 | 48.24222 | 11.03062 | 23218 ft | 394 kts | 156° |
| 2026-04-15 12:53 | 48.21715 | 11.04578 | 23218 ft | 394 kts | 156° |
| 2026-04-15 12:53 | 48.19166 | 11.06110 | 23217 ft | 395 kts | 156° |
| 2026-04-15 12:53 | 48.16617 | 11.07637 | 23217 ft | 395 kts | 156° |
| 2026-04-15 12:53 | 48.14067 | 11.09166 | 23217 ft | 395 kts | 156° |
| 2026-04-15 12:54 | 48.11515 | 11.10695 | 23217 ft | 395 kts | 157° |
| 2026-04-15 12:54 | 48.08970 | 11.12217 | 23213 ft | 395 kts | 156° |
| 2026-04-15 12:54 | 48.06419 | 11.13743 | 23225 ft | 395 kts | 156° |
| 2026-04-15 12:54 | 48.03870 | 11.15268 | 23221 ft | 395 kts | 156° |
| 2026-04-15 12:55 | 48.01320 | 11.16796 | 23207 ft | 395 kts | 156° |
| 2026-04-15 12:55 | 47.98771 | 11.18322 | 23205 ft | 395 kts | 156° |
| 2026-04-15 12:55 | 47.96220 | 11.19844 | 23208 ft | 395 kts | 156° |
| 2026-04-15 12:55 | 47.93673 | 11.21360 | 23203 ft | 395 kts | 156° |
| 2026-04-15 12:56 | 47.91122 | 11.22878 | 23207 ft | 395 kts | 156° |
| 2026-04-15 12:56 | 47.88572 | 11.24396 | 23204 ft | 395 kts | 156° |
| 2026-04-15 12:56 | 47.86025 | 11.25911 | 23218 ft | 395 kts | 156° |
| 2026-04-15 12:56 | 47.83476 | 11.27425 | 23210 ft | 395 kts | 156° |
| 2026-04-15 12:57 | 47.80915 | 11.28940 | 23202 ft | 395 kts | 156° |
| 2026-04-15 12:57 | 47.78358 | 11.30449 | 23203 ft | 395 kts | 156° |
| 2026-04-15 12:57 | 47.75804 | 11.31952 | 23204 ft | 395 kts | 156° |
| 2026-04-15 12:57 | 47.73244 | 11.33459 | 23206 ft | 395 kts | 156° |
| 2026-04-15 12:58 | 47.70688 | 11.34967 | 23203 ft | 395 kts | 156° |
| 2026-04-15 12:58 | 47.68137 | 11.36474 | 23203 ft | 395 kts | 156° |
| 2026-04-15 12:58 | 47.65581 | 11.37980 | 23195 ft | 395 kts | 156° |
| 2026-04-15 12:58 | 47.63026 | 11.39483 | 23213 ft | 395 kts | 157° |
| 2026-04-15 12:59 | 47.57917 | 11.42482 | 23210 ft | 395 kts | 157° |
| 2026-04-15 12:59 | 47.55369 | 11.43973 | 23199 ft | 394 kts | 157° |
| 2026-04-15 12:59 | 47.52816 | 11.45466 | 23194 ft | 394 kts | 157° |
| 2026-04-15 13:00 | 47.50267 | 11.46955 | 23191 ft | 394 kts | 157° |
| 2026-04-15 13:00 | 47.47720 | 11.48447 | 23178 ft | 394 kts | 157° |
| 2026-04-15 13:00 | 47.45175 | 11.49938 | 23181 ft | 394 kts | 157° |
| 2026-04-15 13:00 | 47.42627 | 11.51429 | 23172 ft | 394 kts | 157° |
| 2026-04-15 13:01 | 47.40082 | 11.52915 | 23172 ft | 394 kts | 157° |
| 2026-04-15 13:01 | 47.37535 | 11.54400 | 23168 ft | 394 kts | 157° |
| 2026-04-15 13:01 | 47.34989 | 11.55879 | 23174 ft | 394 kts | 158° |
| 2026-04-15 13:01 | 47.32437 | 11.57356 | 23169 ft | 393 kts | 158° |
| 2026-04-15 13:02 | 47.29894 | 11.58825 | 23166 ft | 393 kts | 158° |
| 2026-04-15 13:02 | 47.27386 | 11.60273 | 23164 ft | 393 kts | 158° |
| 2026-04-15 13:02 | 47.24802 | 11.61769 | 23164 ft | 393 kts | 157° |
| 2026-04-15 13:02 | 47.22255 | 11.63243 | 23163 ft | 393 kts | 157° |
| 2026-04-15 13:03 | 47.19710 | 11.64715 | 23174 ft | 393 kts | 159° |
| 2026-04-15 13:03 | 47.17163 | 11.66188 | 23183 ft | 393 kts | 159° |
| 2026-04-15 13:03 | 47.14625 | 11.67651 | 23188 ft | 391 kts | 160° |
| 2026-04-15 13:03 | 47.12124 | 11.69091 | 23185 ft | 391 kts | 160° |
| 2026-04-15 13:04 | 47.09593 | 11.70546 | 23174 ft | 391 kts | 160° |
| 2026-04-15 13:04 | 47.07069 | 11.71998 | 23170 ft | 390 kts | 160° |
| 2026-04-15 13:04 | 47.04509 | 11.73465 | 23174 ft | 390 kts | 160° |
| 2026-04-15 13:04 | 47.01945 | 11.74537 | 23164 ft | 388 kts | 171° |
| 2026-04-15 13:05 | 46.99270 | 11.74922 | 23167 ft | 386 kts | 181° |
| 2026-04-15 13:05 | 46.96583 | 11.74794 | 23168 ft | 385 kts | 183° |
| 2026-04-15 13:05 | 46.93908 | 11.74649 | 23170 ft | 384 kts | 183° |
| 2026-04-15 13:05 | 46.91239 | 11.74510 | 23170 ft | 384 kts | 183° |
| 2026-04-15 13:06 | 46.88571 | 11.74369 | 23174 ft | 384 kts | 183° |
| 2026-04-15 13:06 | 46.85905 | 11.74222 | 23170 ft | 384 kts | 183° |
| 2026-04-15 13:06 | 46.83237 | 11.74073 | 23168 ft | 383 kts | 183° |
| 2026-04-15 13:06 | 46.80567 | 11.73927 | 23166 ft | 383 kts | 183° |
| 2026-04-15 13:07 | 46.77907 | 11.73785 | 23165 ft | 383 kts | 183° |
| 2026-04-15 13:07 | 46.75243 | 11.73643 | 23165 ft | 383 kts | 183° |
| 2026-04-15 13:07 | 46.72579 | 11.73500 | 23166 ft | 383 kts | 183° |
| 2026-04-15 13:07 | 46.69915 | 11.73356 | 23166 ft | 383 kts | 183° |
| 2026-04-15 13:08 | 46.67248 | 11.73211 | 23161 ft | 383 kts | 183° |
| 2026-04-15 13:08 | 46.64589 | 11.73066 | 23158 ft | 382 kts | 183° |
| 2026-04-15 13:08 | 46.61929 | 11.72922 | 23160 ft | 382 kts | 183° |
| 2026-04-15 13:08 | 46.59272 | 11.72780 | 23156 ft | 382 kts | 183° |
| 2026-04-15 13:09 | 46.56617 | 11.72636 | 23143 ft | 382 kts | 183° |
| 2026-04-15 13:09 | 46.53964 | 11.72489 | 23143 ft | 382 kts | 183° |
| 2026-04-15 13:09 | 46.51305 | 11.72337 | 23143 ft | 382 kts | 184° |
| 2026-04-15 13:09 | 46.48649 | 11.72185 | 23142 ft | 382 kts | 183° |
| 2026-04-15 13:10 | 46.45989 | 11.72034 | 23143 ft | 382 kts | 183° |
| 2026-04-15 13:10 | 46.43335 | 11.71886 | 23144 ft | 382 kts | 183° |
| 2026-04-15 13:10 | 46.40680 | 11.71736 | 23144 ft | 382 kts | 184° |
| 2026-04-15 13:10 | 46.38022 | 11.71609 | 23157 ft | 382 kts | 182° |
| 2026-04-15 13:11 | 46.35363 | 11.71625 | 23157 ft | 382 kts | 180° |
| 2026-04-15 13:11 | 46.32705 | 11.71749 | 23160 ft | 383 kts | 179° |
| 2026-04-15 13:11 | 46.30047 | 11.71918 | 23162 ft | 383 kts | 179° |
| 2026-04-15 13:11 | 46.27383 | 11.72094 | 23163 ft | 383 kts | 179° |
| 2026-04-15 13:12 | 46.24722 | 11.72255 | 23161 ft | 382 kts | 179° |
| 2026-04-15 13:12 | 46.22063 | 11.72394 | 23170 ft | 382 kts | 179° |
| 2026-04-15 13:12 | 46.19406 | 11.72512 | 23170 ft | 382 kts | 179° |
| 2026-04-15 13:12 | 46.16784 | 11.72618 | 23169 ft | 382 kts | 180° |
| 2026-04-15 13:13 | 46.14127 | 11.72723 | 23174 ft | 382 kts | 180° |
| 2026-04-15 13:13 | 46.11468 | 11.72828 | 23169 ft | 382 kts | 179° |
| 2026-04-15 13:13 | 46.08814 | 11.72938 | 23169 ft | 382 kts | 180° |
| 2026-04-15 13:13 | 46.06155 | 11.73048 | 23171 ft | 382 kts | 180° |
| 2026-04-15 13:14 | 46.03494 | 11.73161 | 23171 ft | 382 kts | 179° |
| 2026-04-15 13:14 | 46.00837 | 11.73279 | 23171 ft | 382 kts | 179° |
| 2026-04-15 13:14 | 45.98179 | 11.73395 | 23171 ft | 382 kts | 179° |
| 2026-04-15 13:14 | 45.95524 | 11.73509 | 23164 ft | 382 kts | 180° |
| 2026-04-15 13:15 | 45.92868 | 11.73621 | 23167 ft | 382 kts | 180° |
| 2026-04-15 13:15 | 45.90211 | 11.73732 | 23171 ft | 382 kts | 180° |
| 2026-04-15 13:15 | 45.87556 | 11.73845 | 23172 ft | 382 kts | 179° |
| 2026-04-15 13:15 | 45.84897 | 11.73963 | 23173 ft | 382 kts | 179° |
| 2026-04-15 13:16 | 45.82242 | 11.74079 | 23177 ft | 382 kts | 180° |
| 2026-04-15 13:16 | 45.79585 | 11.74194 | 23178 ft | 382 kts | 179° |
| 2026-04-15 13:16 | 45.76933 | 11.74306 | 23170 ft | 382 kts | 180° |
| 2026-04-15 13:16 | 45.74276 | 11.74418 | 23170 ft | 382 kts | 180° |
| 2026-04-15 13:17 | 45.71624 | 11.74527 | 23165 ft | 382 kts | 180° |
| 2026-04-15 13:17 | 45.68968 | 11.74637 | 23167 ft | 382 kts | 180° |
| 2026-04-15 13:17 | 45.66314 | 11.74746 | 23171 ft | 382 kts | 179° |
| 2026-04-15 13:17 | 45.63660 | 11.74860 | 23167 ft | 382 kts | 180° |
| 2026-04-15 13:18 | 45.61007 | 11.74973 | 23157 ft | 382 kts | 179° |
| 2026-04-15 13:18 | 45.58349 | 11.75088 | 23152 ft | 382 kts | 180° |
| 2026-04-15 13:18 | 45.55694 | 11.75206 | 23154 ft | 382 kts | 180° |
| 2026-04-15 13:18 | 45.53045 | 11.75320 | 23155 ft | 381 kts | 179° |
| 2026-04-15 13:19 | 45.50397 | 11.75429 | 23158 ft | 381 kts | 179° |
| 2026-04-15 13:19 | 45.47753 | 11.75539 | 23159 ft | 380 kts | 179° |
| 2026-04-15 13:19 | 45.45112 | 11.75650 | 23159 ft | 380 kts | 179° |
| 2026-04-15 13:19 | 45.42469 | 11.75762 | 23159 ft | 379 kts | 179° |
| 2026-04-15 13:20 | 45.39837 | 11.75870 | 23155 ft | 379 kts | 179° |
| 2026-04-15 13:20 | 45.37197 | 11.75979 | 23156 ft | 379 kts | 179° |
| 2026-04-15 13:20 | 45.34565 | 11.76088 | 23155 ft | 378 kts | 179° |
| 2026-04-15 13:20 | 45.32822 | 11.76160 | 23156 ft | 378 kts | 180° |
| 2026-04-15 13:21 | 45.30190 | 11.76270 | 23159 ft | 378 kts | 179° |
| 2026-04-15 13:21 | 45.27566 | 11.76378 | 23158 ft | 378 kts | 179° |
| 2026-04-15 13:21 | 45.24939 | 11.76485 | 23159 ft | 378 kts | 180° |
| 2026-04-15 13:21 | 45.22310 | 11.76592 | 23160 ft | 378 kts | 179° |
| 2026-04-15 13:22 | 45.19680 | 11.76702 | 23162 ft | 377 kts | 179° |
| 2026-04-15 13:22 | 45.17059 | 11.76814 | 23160 ft | 377 kts | 180° |
| 2026-04-15 13:22 | 45.14434 | 11.76926 | 23160 ft | 377 kts | 179° |
| 2026-04-15 13:22 | 45.11814 | 11.77040 | 23163 ft | 377 kts | 179° |
| 2026-04-15 13:23 | 45.09183 | 11.77148 | 23166 ft | 377 kts | 180° |
| 2026-04-15 13:23 | 45.06560 | 11.77252 | 23167 ft | 377 kts | 179° |
| 2026-04-15 13:23 | 45.03938 | 11.77361 | 23168 ft | 377 kts | 179° |
| 2026-04-15 13:23 | 45.01318 | 11.77471 | 23167 ft | 377 kts | 179° |
| 2026-04-15 13:24 | 44.98697 | 11.77579 | 23164 ft | 377 kts | 179° |
| 2026-04-15 13:24 | 44.96081 | 11.77688 | 23165 ft | 377 kts | 179° |
| 2026-04-15 13:24 | 44.93458 | 11.77797 | 23167 ft | 377 kts | 179° |
| 2026-04-15 13:24 | 44.90838 | 11.77905 | 23165 ft | 376 kts | 179° |
| 2026-04-15 13:25 | 44.88216 | 11.78013 | 23168 ft | 376 kts | 179° |
| 2026-04-15 13:25 | 44.85605 | 11.78121 | 23169 ft | 376 kts | 180° |
| 2026-04-15 13:25 | 44.82990 | 11.78227 | 23165 ft | 376 kts | 180° |
| 2026-04-15 13:25 | 44.80404 | 11.78330 | 23165 ft | 376 kts | 180° |
| 2026-04-15 13:26 | 44.77786 | 11.78435 | 23165 ft | 376 kts | 180° |
| 2026-04-15 13:26 | 44.75177 | 11.78542 | 23163 ft | 376 kts | 179° |
| 2026-04-15 13:26 | 44.72560 | 11.78649 | 23164 ft | 376 kts | 179° |
| 2026-04-15 13:26 | 44.69916 | 11.78758 | 23165 ft | 376 kts | 179° |
| 2026-04-15 13:27 | 44.67333 | 11.78863 | 23171 ft | 376 kts | 179° |
| 2026-04-15 13:27 | 44.64685 | 11.78972 | 23171 ft | 375 kts | 179° |
| 2026-04-15 13:27 | 44.62113 | 11.79079 | 23170 ft | 375 kts | 179° |
| 2026-04-15 13:27 | 44.59506 | 11.79185 | 23170 ft | 375 kts | 179° |
| 2026-04-15 13:28 | 44.56889 | 11.79287 | 23172 ft | 375 kts | 179° |
| 2026-04-15 13:28 | 44.54280 | 11.79393 | 23169 ft | 375 kts | 179° |
| 2026-04-15 13:28 | 44.51675 | 11.79500 | 23166 ft | 375 kts | 179° |
| 2026-04-15 13:28 | 44.49059 | 11.79609 | 23163 ft | 375 kts | 179° |
| 2026-04-15 13:29 | 44.46454 | 11.79717 | 23518 ft | 376 kts | 179° |
| 2026-04-15 13:29 | 44.43832 | 11.79823 | 23874 ft | 378 kts | 179° |
| 2026-04-15 13:29 | 44.41192 | 11.79928 | 24200 ft | 380 kts | 179° |
| 2026-04-15 13:29 | 44.38549 | 11.80035 | 24537 ft | 381 kts | 179° |
| 2026-04-15 13:30 | 44.35892 | 11.80146 | 24863 ft | 382 kts | 179° |
| 2026-04-15 13:30 | 44.33232 | 11.80260 | 25200 ft | 383 kts | 179° |
| 2026-04-15 13:30 | 44.30564 | 11.80373 | 25541 ft | 384 kts | 179° |
| 2026-04-15 13:30 | 44.27885 | 11.80484 | 25875 ft | 386 kts | 179° |
| 2026-04-15 13:31 | 44.25199 | 11.80590 | 26225 ft | 387 kts | 179° |
| 2026-04-15 13:31 | 44.22505 | 11.80692 | 26577 ft | 388 kts | 179° |
| 2026-04-15 13:31 | 44.19801 | 11.80795 | 26935 ft | 389 kts | 179° |
| 2026-04-15 13:31 | 44.17085 | 11.80901 | 27300 ft | 390 kts | 179° |
| 2026-04-15 13:32 | 44.14368 | 11.81008 | 27660 ft | 391 kts | 179° |
| 2026-04-15 13:32 | 44.11641 | 11.81116 | 28032 ft | 393 kts | 179° |
| 2026-04-15 13:32 | 44.08906 | 11.81227 | 28411 ft | 394 kts | 179° |
| 2026-04-15 13:32 | 44.06168 | 11.81339 | 28788 ft | 395 kts | 179° |
| 2026-04-15 13:33 | 44.03415 | 11.81451 | 29091 ft | 397 kts | 179° |
| 2026-04-15 13:33 | 44.00647 | 11.81564 | 29140 ft | 397 kts | 179° |
| 2026-04-15 13:33 | 43.95144 | 11.81782 | 29128 ft | 395 kts | 178° |
| 2026-04-15 13:34 | 43.89680 | 11.82863 | 29115 ft | 400 kts | 169° |
| 2026-04-15 13:34 | 43.84272 | 11.84384 | 29109 ft | 396 kts | 169° |
| 2026-04-15 13:35 | 43.78907 | 11.85932 | 29110 ft | 392 kts | 168° |
| 2026-04-15 13:35 | 43.73622 | 11.87446 | 29099 ft | 391 kts | 168° |
| 2026-04-15 13:36 | 43.68320 | 11.88956 | 29086 ft | 391 kts | 168° |
| 2026-04-15 13:36 | 43.62990 | 11.90460 | 29095 ft | 393 kts | 168° |
| 2026-04-15 13:37 | 43.57669 | 11.91959 | 29083 ft | 391 kts | 167° |
| 2026-04-15 13:37 | 43.52316 | 11.93469 | 29084 ft | 392 kts | 167° |
| 2026-04-15 13:38 | 43.46977 | 11.94966 | 29077 ft | 392 kts | 167° |
| 2026-04-15 13:38 | 43.41614 | 11.96468 | 29067 ft | 393 kts | 167° |
| 2026-04-15 13:39 | 43.36240 | 11.97977 | 29068 ft | 396 kts | 167° |
| 2026-04-15 13:39 | 43.30846 | 11.99483 | 29056 ft | 394 kts | 167° |
| 2026-04-15 13:40 | 43.25463 | 12.00993 | 29051 ft | 394 kts | 167° |
| 2026-04-15 13:40 | 43.22778 | 12.01745 | 28932 ft | 392 kts | 167° |
| 2026-04-15 13:40 | 43.20147 | 12.02479 | 28373 ft | 377 kts | 167° |
| 2026-04-15 13:41 | 43.17610 | 12.03182 | 27839 ft | 369 kts | 166° |
| 2026-04-15 13:41 | 43.15110 | 12.03873 | 27312 ft | 365 kts | 166° |
| 2026-04-15 13:41 | 43.12625 | 12.04557 | 26796 ft | 362 kts | 166° |
| 2026-04-15 13:41 | 43.10163 | 12.05240 | 26280 ft | 360 kts | 166° |
| 2026-04-15 13:42 | 43.07718 | 12.05921 | 25781 ft | 358 kts | 166° |
| 2026-04-15 13:42 | 43.05274 | 12.06599 | 25288 ft | 357 kts | 165° |
| 2026-04-15 13:42 | 43.02851 | 12.07268 | 24799 ft | 354 kts | 165° |
| 2026-04-15 13:42 | 43.00443 | 12.07932 | 24326 ft | 352 kts | 165° |
| 2026-04-15 13:43 | 42.98049 | 12.08594 | 23870 ft | 351 kts | 165° |
| 2026-04-15 13:43 | 42.95667 | 12.09255 | 23370 ft | 349 kts | 165° |
| 2026-04-15 13:43 | 42.93290 | 12.09917 | 22811 ft | 348 kts | 165° |
| 2026-04-15 13:43 | 42.90918 | 12.10574 | 22094 ft | 345 kts | 165° |
| 2026-04-15 13:44 | 42.88580 | 12.11218 | 21391 ft | 341 kts | 165° |
| 2026-04-15 13:44 | 42.86265 | 12.11854 | 20697 ft | 338 kts | 165° |
| 2026-04-15 13:44 | 42.83968 | 12.12487 | 20030 ft | 335 kts | 165° |
| 2026-04-15 13:44 | 42.81725 | 12.13105 | 19374 ft | 332 kts | 165° |
| 2026-04-15 13:45 | 42.79468 | 12.13727 | 18723 ft | 331 kts | 166° |
| 2026-04-15 13:45 | 42.77222 | 12.14341 | 18058 ft | 327 kts | 166° |
| 2026-04-15 13:45 | 42.75006 | 12.14947 | 17350 ft | 322 kts | 166° |
| 2026-04-15 13:47 | 42.61472 | 12.23075 | 12570 ft | 296 kts | 147° |
| 2026-04-15 13:47 | 42.59711 | 12.24485 | 11879 ft | 293 kts | 147° |
| 2026-04-15 13:47 | 42.57964 | 12.25882 | 11232 ft | 289 kts | 147° |
| 2026-04-15 13:48 | 42.56246 | 12.27252 | 11036 ft | 286 kts | 147° |
| 2026-04-15 13:48 | 42.54533 | 12.28620 | 10980 ft | 287 kts | 147° |
| 2026-04-15 13:48 | 42.52807 | 12.29998 | 10985 ft | 287 kts | 147° |
| 2026-04-15 13:48 | 42.51087 | 12.31367 | 10982 ft | 287 kts | 147° |
| 2026-04-15 13:49 | 42.49363 | 12.32719 | 10980 ft | 287 kts | 150° |
| 2026-04-15 13:49 | 42.47434 | 12.33484 | 10973 ft | 293 kts | 173° |
| 2026-04-15 13:49 | 42.45395 | 12.33174 | 10763 ft | 300 kts | 197° |
| 2026-04-15 13:49 | 42.43635 | 12.31726 | 10250 ft | 297 kts | 224° |
| 2026-04-15 13:50 | 42.42499 | 12.29432 | 9743 ft | 293 kts | 248° |
| 2026-04-15 13:50 | 42.42139 | 12.26770 | 9185 ft | 286 kts | 273° |
| 2026-04-15 13:50 | 42.42324 | 12.24131 | 8649 ft | 279 kts | 271° |
| 2026-04-15 13:50 | 42.42104 | 12.21545 | 8113 ft | 274 kts | 256° |
| 2026-04-15 13:51 | 42.41404 | 12.19196 | 7588 ft | 267 kts | 234° |
| 2026-04-15 13:51 | 42.40157 | 12.17424 | 7098 ft | 258 kts | 211° |
| 2026-04-15 13:51 | 42.38548 | 12.16474 | 6598 ft | 249 kts | 187° |
| 2026-04-15 13:51 | 42.36857 | 12.16412 | 6078 ft | 241 kts | 171° |
| 2026-04-15 13:52 | 42.35197 | 12.16639 | 5540 ft | 239 kts | 171° |
| 2026-04-15 13:52 | 42.33550 | 12.16854 | 5015 ft | 236 kts | 171° |
| 2026-04-15 13:52 | 42.31915 | 12.17064 | 4487 ft | 236 kts | 172° |
| 2026-04-15 13:52 | 42.30291 | 12.17273 | 4052 ft | 231 kts | 173° |
| 2026-04-15 13:53 | 42.28719 | 12.17474 | 3996 ft | 224 kts | 172° |
| 2026-04-15 13:53 | 42.27176 | 12.17673 | 4036 ft | 223 kts | 172° |
| 2026-04-15 13:53 | 42.25631 | 12.17873 | 3993 ft | 222 kts | 172° |
| 2026-04-15 13:53 | 42.24117 | 12.18067 | 3992 ft | 221 kts | 172° |
| 2026-04-15 13:54 | 42.22590 | 12.18261 | 3996 ft | 220 kts | 172° |
| 2026-04-15 13:54 | 42.21058 | 12.18454 | 3998 ft | 222 kts | 172° |
| 2026-04-15 13:54 | 42.19516 | 12.18650 | 3995 ft | 222 kts | 172° |
| 2026-04-15 13:54 | 42.17976 | 12.18846 | 3975 ft | 223 kts | 172° |
| 2026-04-15 13:55 | 42.16436 | 12.19041 | 3981 ft | 222 kts | 172° |
| 2026-04-15 13:55 | 42.14909 | 12.19232 | 3973 ft | 219 kts | 172° |
| 2026-04-15 13:55 | 42.13386 | 12.19300 | 3975 ft | 220 kts | 183° |
| 2026-04-15 13:55 | 42.11871 | 12.18953 | 3972 ft | 222 kts | 192° |
| 2026-04-15 13:56 | 42.10411 | 12.18417 | 4145 ft | 215 kts | 194° |
| 2026-04-15 13:56 | 42.08964 | 12.17913 | 4154 ft | 213 kts | 188° |
| 2026-04-15 13:56 | 42.07502 | 12.17735 | 4154 ft | 211 kts | 181° |
| 2026-04-15 13:56 | 42.06043 | 12.17646 | 4174 ft | 209 kts | 180° |
| 2026-04-15 13:57 | 42.04604 | 12.17797 | 4194 ft | 208 kts | 165° |
| 2026-04-15 13:57 | 42.03212 | 12.18319 | 3989 ft | 207 kts | 161° |
| 2026-04-15 13:57 | 42.01842 | 12.18898 | 3524 ft | 205 kts | 160° |
| 2026-04-15 13:57 | 42.00501 | 12.19465 | 3263 ft | 199 kts | 161° |
| 2026-04-15 13:58 | 41.99196 | 12.20015 | 2999 ft | 193 kts | 160° |
| 2026-04-15 13:58 | 41.97931 | 12.20548 | 2765 ft | 189 kts | 161° |
| 2026-04-15 13:58 | 41.96683 | 12.21074 | 2514 ft | 188 kts | 161° |
| 2026-04-15 13:58 | 41.95439 | 12.21597 | 2263 ft | 186 kts | 162° |
| 2026-04-15 13:59 | 41.94208 | 12.22110 | 2013 ft | 184 kts | 161° |
| 2026-04-15 13:59 | 41.93007 | 12.22614 | 1789 ft | 173 kts | 162° |
| 2026-04-15 13:59 | 41.91918 | 12.23067 | 1522 ft | 156 kts | 162° |
| 2026-04-15 13:59 | 41.90914 | 12.23489 | 1334 ft | 147 kts | 162° |
| 2026-04-15 14:00 | 41.89947 | 12.23898 | 1116 ft | 145 kts | 163° |
| 2026-04-15 14:00 | 41.88981 | 12.24300 | 966 ft | 145 kts | 163° |
| 2026-04-15 14:00 | 41.88027 | 12.24696 | 788 ft | 142 kts | 166° |
| 2026-04-15 14:00 | 41.87096 | 12.25089 | 610 ft | 138 kts | 167° |
| 2026-04-15 14:01 | 41.85312 | 12.25843 | 218 ft | 133 kts | 167° |
| 2026-04-15 14:01 | 41.84436 | 12.26214 | 40 ft | 130 kts | 167° |
| 2026-04-15 14:01 | 41.83705 | 12.26519 | 16 ft | 73 kts | 162° |
| 2026-04-15 14:02 | 41.83299 | 12.26692 | 14 ft | 54 kts | 163° |
| 2026-04-15 14:02 | 41.82969 | 12.26828 | 17 ft | 45 kts | 164° |
| 2026-04-15 14:02 | 41.82714 | 12.26862 | 18 ft | 34 kts | 187° |
| 2026-04-15 14:02 | 41.82547 | 12.26823 | 14 ft | 16 kts | 192° |
| 2026-04-15 14:03 | 41.82458 | 12.26798 | 13 ft | 2 kts | 192° |
| 2026-04-15 14:03 | 41.82455 | 12.26797 | 13 ft | 1 kts | 192° |
| 2026-04-15 14:03 | 41.82444 | 12.26794 | 13 ft | 5 kts | 192° |
| 2026-04-15 14:03 | 41.82395 | 12.26782 | 12 ft | 9 kts | 187° |
| 2026-04-15 14:04 | 41.82321 | 12.26782 | 13 ft | 12 kts | 173° |
| 2026-04-15 14:04 | 41.82229 | 12.26817 | 11 ft | 16 kts | 162° |
| 2026-04-15 14:04 | 41.82115 | 12.26864 | 10 ft | 19 kts | 162° |
| 2026-04-15 14:04 | 41.81986 | 12.26920 | 13 ft | 20 kts | 162° |
| 2026-04-15 14:05 | 41.81842 | 12.26978 | 12 ft | 23 kts | 163° |
| 2026-04-15 14:05 | 41.81691 | 12.27041 | 17 ft | 23 kts | 163° |
| 2026-04-15 14:05 | 41.81534 | 12.27106 | 18 ft | 25 kts | 162° |
| 2026-04-15 14:05 | 41.81360 | 12.27176 | 17 ft | 27 kts | 164° |
| 2026-04-15 14:06 | 41.81171 | 12.27256 | 14 ft | 30 kts | 162° |
| 2026-04-15 14:06 | 41.80964 | 12.27341 | 13 ft | 31 kts | 163° |
| 2026-04-15 14:06 | 41.80761 | 12.27318 | 13 ft | 28 kts | 184° |
| 2026-04-15 14:06 | 41.80636 | 12.27176 | 13 ft | 23 kts | 256° |
| 2026-04-15 14:07 | 41.80585 | 12.26966 | 16 ft | 24 kts | 252° |
| 2026-04-15 14:07 | 41.80532 | 12.26753 | 13 ft | 25 kts | 250° |
| 2026-04-15 14:07 | 41.80469 | 12.26535 | 16 ft | 25 kts | 247° |
| 2026-04-15 14:07 | 41.80408 | 12.26329 | 13 ft | 24 kts | 250° |
| 2026-04-15 14:08 | 41.80351 | 12.26124 | 14 ft | 15 kts | 244° |
| 2026-04-15 14:08 | 41.80255 | 12.26055 | 16 ft | 17 kts | 201° |
| 2026-04-15 14:08 | 41.80148 | 12.25994 | 17 ft | 16 kts | 206° |
| 2026-04-15 14:08 | 41.80078 | 12.25951 | 17 ft | 16 kts | 204° |
| 2026-04-15 14:09 | 41.79939 | 12.25866 | 18 ft | 17 kts | 204° |
| 2026-04-15 14:09 | 41.79869 | 12.25819 | 18 ft | 17 kts | 211° |
| 2026-04-15 14:09 | 41.79766 | 12.25745 | 19 ft | 15 kts | 204° |
| 2026-04-15 14:09 | 41.79711 | 12.25698 | 18 ft | 6 kts | 254° |
| 2026-04-15 14:10 | 41.79724 | 12.25649 | 18 ft | 1 kts | 294° |
| 2026-04-15 14:10 | 41.79725 | 12.25645 | 18 ft | 0 kts | 294° |